createdAt,value
2023-02-13T00:00:21.940Z,18.75
2023-02-13T00:01:24.409Z,18.78
2023-02-13T00:02:26.245Z,18.77
2023-02-13T00:03:28.166Z,18.75
2023-02-13T00:04:29.945Z,18.75
2023-02-13T00:05:31.858Z,18.74
2023-02-13T00:06:33.669Z,18.75
2023-02-13T00:07:35.515Z,18.74
2023-02-13T00:08:37.385Z,18.73
2023-02-13T00:09:39.709Z,18.71
2023-02-13T00:10:41.561Z,18.72
2023-02-13T00:11:43.384Z,18.71
2023-02-13T00:12:45.180Z,18.71
2023-02-13T00:13:47.028Z,18.70
2023-02-13T00:14:48.834Z,18.59
2023-02-13T00:15:59.140Z,18.70
2023-02-13T00:17:01.045Z,18.73
2023-02-13T00:18:03.654Z,18.70
2023-02-13T00:19:05.559Z,18.69
2023-02-13T00:20:08.234Z,18.68
2023-02-13T00:21:12.561Z,18.68
2023-02-13T00:22:16.715Z,18.67
2023-02-13T00:23:18.510Z,18.67
2023-02-13T00:24:20.431Z,18.66
2023-02-13T00:25:22.437Z,18.65
2023-02-13T00:26:24.950Z,18.64
2023-02-13T00:27:26.740Z,18.55
2023-02-13T00:28:28.680Z,18.64
2023-02-13T00:29:30.628Z,18.64
2023-02-13T00:30:32.474Z,18.59
2023-02-13T00:31:34.316Z,18.61
2023-02-13T00:32:36.113Z,18.58
2023-02-13T00:33:39.000Z,18.57
2023-02-13T00:34:40.969Z,18.62
2023-02-13T00:35:42.728Z,18.61
2023-02-13T00:36:44.565Z,18.55
2023-02-13T00:37:46.384Z,18.55
2023-02-13T00:38:49.023Z,18.59
2023-02-13T00:39:50.916Z,18.59
2023-02-13T00:40:53.588Z,18.59
2023-02-13T00:41:55.376Z,18.58
2023-02-13T00:42:57.412Z,18.53
2023-02-13T00:43:59.289Z,18.58
2023-02-13T00:45:01.196Z,18.55
2023-02-13T00:46:05.409Z,18.58
2023-02-13T00:47:07.281Z,18.49
2023-02-13T00:48:09.094Z,18.57
2023-02-13T00:49:11.017Z,18.56
2023-02-13T00:50:12.777Z,18.56
2023-02-13T00:51:14.729Z,18.55
2023-02-13T00:52:16.540Z,18.54
2023-02-13T00:53:19.952Z,18.53
2023-02-13T00:54:22.257Z,18.55
2023-02-13T00:55:24.128Z,18.55
2023-02-13T00:56:25.899Z,18.48
2023-02-13T00:57:27.769Z,18.53
2023-02-13T00:58:29.650Z,18.36
2023-02-13T00:59:32.312Z,18.53
2023-02-13T01:00:35.449Z,18.48
2023-02-13T01:01:37.250Z,18.51
2023-02-13T01:02:39.016Z,18.50
2023-02-13T01:03:41.259Z,18.51
2023-02-13T01:04:43.082Z,18.50
2023-02-13T01:05:45.384Z,18.48
2023-02-13T01:06:47.148Z,18.51
2023-02-13T01:07:50.237Z,18.41
2023-02-13T01:08:52.019Z,18.42
2023-02-13T01:09:53.892Z,18.50
2023-02-13T01:10:56.756Z,18.50
2023-02-13T01:11:59.040Z,18.45
2023-02-13T01:13:00.997Z,18.50
2023-02-13T01:14:03.096Z,18.42
2023-02-13T01:15:06.380Z,18.49
2023-02-13T01:16:08.449Z,18.50
2023-02-13T01:17:10.374Z,18.48
2023-02-13T01:18:16.715Z,18.46
2023-02-13T01:19:18.494Z,18.42
2023-02-13T01:20:20.560Z,18.46
2023-02-13T01:21:23.846Z,18.48
2023-02-13T01:22:28.117Z,18.40
2023-02-13T01:23:34.827Z,18.46
2023-02-13T01:24:36.806Z,18.44
2023-02-13T01:25:42.851Z,18.48
2023-02-13T01:26:44.850Z,18.43
2023-02-13T01:27:47.806Z,18.48
2023-02-13T01:28:55.504Z,18.46
2023-02-13T01:29:57.477Z,18.46
2023-02-13T01:30:59.888Z,18.46
2023-02-13T01:32:05.150Z,18.45
2023-02-13T01:33:07.097Z,18.44
2023-02-13T01:34:08.979Z,18.34
2023-02-13T01:35:13.259Z,18.44
2023-02-13T01:36:15.223Z,18.42
2023-02-13T01:37:17.259Z,18.44
2023-02-13T01:38:20.261Z,18.43
2023-02-13T01:39:22.049Z,18.43
2023-02-13T01:40:23.868Z,18.42
2023-02-13T01:41:27.246Z,18.42
2023-02-13T01:42:31.420Z,18.41
2023-02-13T01:43:51.200Z,18.43
2023-02-13T01:44:58.712Z,18.47
2023-02-13T01:46:01.929Z,18.44
2023-02-13T01:47:03.776Z,18.44
2023-02-13T01:48:11.356Z,18.41
2023-02-13T01:49:20.951Z,18.39
2023-02-13T01:50:35.210Z,18.43
2023-02-13T01:51:37.897Z,18.42
2023-02-13T01:52:46.722Z,18.43
2023-02-13T01:54:01.221Z,18.37
2023-02-13T01:55:04.916Z,18.46
2023-02-13T01:56:14.060Z,18.43
2023-02-13T01:57:22.413Z,18.42
2023-02-13T01:58:29.735Z,18.43
2023-02-13T01:59:41.086Z,18.35
2023-02-13T02:00:43.794Z,18.43
2023-02-13T02:01:46.013Z,18.42
2023-02-13T02:02:55.800Z,18.40
2023-02-13T02:04:11.781Z,18.43
2023-02-13T02:05:16.008Z,18.42
2023-02-13T02:06:31.633Z,18.36
2023-02-13T02:07:34.523Z,18.39
2023-02-13T02:08:40.972Z,18.36
2023-02-13T02:09:45.513Z,18.37
2023-02-13T02:10:48.984Z,18.38
2023-02-13T02:11:53.647Z,18.35
2023-02-13T02:13:26.231Z,18.43
2023-02-13T02:14:28.894Z,18.42
2023-02-13T02:15:32.049Z,18.38
2023-02-13T02:16:33.850Z,18.31
2023-02-13T02:17:38.431Z,18.35
2023-02-13T02:18:40.249Z,18.34
2023-02-13T02:19:56.450Z,18.33
2023-02-13T02:21:47.498Z,18.41
2023-02-13T02:22:57.248Z,18.45
2023-02-13T02:24:25.767Z,18.43
2023-02-13T02:25:52.108Z,18.42
2023-02-13T02:27:20.829Z,18.42
2023-02-13T02:28:58.236Z,18.38
2023-02-13T02:30:51.376Z,18.44
2023-02-13T02:32:23.190Z,18.50
2023-02-13T02:33:55.280Z,18.48
2023-02-13T02:35:23.944Z,18.46
2023-02-13T02:36:44.920Z,18.41
2023-02-13T02:38:05.219Z,18.39
2023-02-13T02:39:14.378Z,18.29
2023-02-13T02:40:46.548Z,18.36
2023-02-13T02:42:20.336Z,18.41
2023-02-13T02:43:33.954Z,18.36
2023-02-13T02:44:51.433Z,18.35
2023-02-13T02:46:11.011Z,18.31
2023-02-13T02:47:49.740Z,18.34
2023-02-13T02:49:22.312Z,18.35
2023-02-13T02:50:27.762Z,18.34
2023-02-13T02:51:44.184Z,18.30
2023-02-13T02:53:04.702Z,18.31
2023-02-13T02:54:41.018Z,18.29
2023-02-13T02:55:56.645Z,18.33
2023-02-13T02:57:06.194Z,18.29
2023-02-13T02:58:44.390Z,18.26
2023-02-13T03:00:06.647Z,18.31
2023-02-13T03:01:32.390Z,18.29
2023-02-13T03:02:53.777Z,18.30
2023-02-13T03:04:16.626Z,18.29
2023-02-13T03:05:41.764Z,18.27
2023-02-13T03:06:51.884Z,18.28
2023-02-13T03:07:53.701Z,18.25
2023-02-13T03:09:20.839Z,18.22
2023-02-13T03:10:47.207Z,18.24
2023-02-13T03:12:13.626Z,18.20
2023-02-13T03:13:28.817Z,18.26
2023-02-13T03:14:30.648Z,18.25
2023-02-13T03:15:35.477Z,18.20
2023-02-13T03:16:55.796Z,18.18
2023-02-13T03:18:16.687Z,18.21
2023-02-13T03:19:48.147Z,18.22
2023-02-13T03:21:29.663Z,18.25
2023-02-13T03:22:58.018Z,18.28
2023-02-13T03:24:20.633Z,18.31
2023-02-13T03:25:41.084Z,18.25
2023-02-13T03:26:58.054Z,18.24
2023-02-13T03:28:22.815Z,18.22
2023-02-13T03:29:46.310Z,18.21
2023-02-13T03:31:21.269Z,18.25
2023-02-13T03:32:39.861Z,18.25
2023-02-13T03:33:44.233Z,18.23
2023-02-13T03:35:15.025Z,18.16
2023-02-13T03:36:45.970Z,18.19
2023-02-13T03:37:56.554Z,18.10
2023-02-13T03:39:17.765Z,18.20
2023-02-13T03:40:29.567Z,18.19
2023-02-13T03:41:40.301Z,18.16
2023-02-13T03:42:46.181Z,18.15
2023-02-13T03:43:53.420Z,18.14
2023-02-13T03:45:22.676Z,18.13
2023-02-13T03:46:28.847Z,18.17
2023-02-13T03:47:30.818Z,18.15
2023-02-13T03:48:55.262Z,18.04
2023-02-13T03:50:06.157Z,18.15
2023-02-13T03:51:10.486Z,18.14
2023-02-13T03:52:40.744Z,18.19
2023-02-13T03:53:45.861Z,18.08
2023-02-13T03:55:14.901Z,18.12
2023-02-13T03:56:38.782Z,18.18
2023-02-13T03:58:02.486Z,18.19
2023-02-13T03:59:17.166Z,18.14
2023-02-13T04:00:21.036Z,17.93
2023-02-13T04:01:28.479Z,18.14
2023-02-13T04:02:37.608Z,18.15
2023-02-13T04:04:01.547Z,18.18
2023-02-13T04:05:09.730Z,18.17
2023-02-13T04:06:16.848Z,18.15
2023-02-13T04:07:32.050Z,18.14
2023-02-13T04:08:33.986Z,18.16
2023-02-13T04:09:41.011Z,18.13
2023-02-13T04:10:52.927Z,18.14
2023-02-13T04:12:00.411Z,18.16
2023-02-13T04:13:30.241Z,18.19
2023-02-13T04:15:02.208Z,18.25
2023-02-13T04:16:13.654Z,18.24
2023-02-13T04:17:38.953Z,18.18
2023-02-13T04:18:42.098Z,18.23
2023-02-13T04:19:44.113Z,18.19
2023-02-13T04:20:46.069Z,18.17
2023-02-13T04:21:56.025Z,18.13
2023-02-13T04:22:57.832Z,18.14
2023-02-13T04:23:59.601Z,18.13
2023-02-13T04:25:01.513Z,18.13
2023-02-13T04:26:08.538Z,18.10
2023-02-13T04:27:15.455Z,18.13
2023-02-13T04:28:17.548Z,18.13
2023-02-13T04:29:20.876Z,18.05
2023-02-13T04:30:22.661Z,18.11
2023-02-13T04:31:24.674Z,18.07
2023-02-13T04:32:26.514Z,18.07
2023-02-13T04:33:28.226Z,18.11
2023-02-13T04:34:30.047Z,18.01
2023-02-13T04:35:31.985Z,18.12
2023-02-13T04:36:33.792Z,18.10
2023-02-13T04:37:35.563Z,18.08
2023-02-13T04:38:37.366Z,18.10
2023-02-13T04:39:39.220Z,18.10
2023-02-13T04:40:40.988Z,18.11
2023-02-13T04:41:42.832Z,18.09
2023-02-13T04:42:44.680Z,18.11
2023-02-13T04:43:46.552Z,18.08
2023-02-13T04:44:48.376Z,18.10
2023-02-13T04:45:50.398Z,18.12
2023-02-13T04:46:52.273Z,18.11
2023-02-13T04:47:56.041Z,18.06
2023-02-13T04:48:57.897Z,18.12
2023-02-13T04:49:59.660Z,18.11
2023-02-13T04:51:01.514Z,18.11
2023-02-13T04:52:03.504Z,18.11
2023-02-13T04:53:05.485Z,18.05
2023-02-13T04:54:07.307Z,18.10
2023-02-13T04:55:09.273Z,18.07
2023-02-13T04:56:11.119Z,18.10
2023-02-13T04:57:13.113Z,18.11
2023-02-13T04:58:15.088Z,18.04
2023-02-13T04:59:16.944Z,18.10
2023-02-13T05:00:19.577Z,18.10
2023-02-13T05:01:21.595Z,18.09
2023-02-13T05:02:23.439Z,18.10
2023-02-13T05:03:26.595Z,18.08
2023-02-13T05:04:29.055Z,18.05
2023-02-13T05:05:31.042Z,18.04
2023-02-13T05:06:32.884Z,18.11
2023-02-13T05:07:34.741Z,18.10
2023-02-13T05:08:36.653Z,18.04
2023-02-13T05:09:41.252Z,18.04
2023-02-13T05:10:43.380Z,18.10
2023-02-13T05:11:45.188Z,18.10
2023-02-13T05:12:48.241Z,18.10
2023-02-13T05:13:50.162Z,18.11
2023-02-13T05:14:52.039Z,18.11
2023-02-13T05:15:53.915Z,18.11
2023-02-13T05:16:55.803Z,18.11
2023-02-13T05:17:57.762Z,18.10
2023-02-13T05:18:59.630Z,18.11
2023-02-13T05:20:01.489Z,18.10
2023-02-13T05:21:22.021Z,18.10
2023-02-13T05:22:42.301Z,18.17
2023-02-13T05:23:44.132Z,18.20
2023-02-13T05:24:45.897Z,18.17
2023-02-13T05:25:47.665Z,18.13
2023-02-13T05:26:49.634Z,18.09
2023-02-13T05:27:51.394Z,18.13
2023-02-13T05:29:12.019Z,17.97
2023-02-13T05:30:14.613Z,18.13
2023-02-13T05:31:16.563Z,18.14
2023-02-13T05:32:18.529Z,18.13
2023-02-13T05:33:20.396Z,18.11
2023-02-13T05:34:24.257Z,18.11
2023-02-13T05:35:26.211Z,18.13
2023-02-13T05:36:28.127Z,18.08
2023-02-13T05:37:29.958Z,18.12
2023-02-13T05:38:32.131Z,18.06
2023-02-13T05:39:34.109Z,18.12
2023-02-13T05:40:35.904Z,18.08
2023-02-13T05:41:37.712Z,18.11
2023-02-13T05:42:40.738Z,18.10
2023-02-13T05:43:42.596Z,18.11
2023-02-13T05:44:44.364Z,18.11
2023-02-13T05:45:46.501Z,18.10
2023-02-13T05:46:49.396Z,18.06
2023-02-13T05:47:51.210Z,18.11
2023-02-13T05:48:53.036Z,18.12
2023-02-13T05:49:54.838Z,18.11
2023-02-13T05:50:57.012Z,18.05
2023-02-13T05:51:59.224Z,18.06
2023-02-13T05:53:01.094Z,18.11
2023-02-13T05:54:03.106Z,18.10
2023-02-13T05:55:05.305Z,18.06
2023-02-13T05:56:07.589Z,18.10
2023-02-13T05:57:09.496Z,17.94
2023-02-13T05:58:12.004Z,18.13
2023-02-13T05:59:14.276Z,18.14
2023-02-13T06:00:16.693Z,18.13
2023-02-13T06:01:18.955Z,18.12
2023-02-13T06:02:20.699Z,18.13
2023-02-13T06:03:23.319Z,18.09
2023-02-13T06:04:25.140Z,18.13
2023-02-13T06:05:26.897Z,18.14
2023-02-13T06:06:28.706Z,18.03
2023-02-13T06:07:30.584Z,18.04
2023-02-13T06:08:32.553Z,18.15
2023-02-13T06:09:34.372Z,18.15
2023-02-13T06:10:36.348Z,18.15
2023-02-13T06:11:38.129Z,18.17
2023-02-13T06:12:39.982Z,18.19
2023-02-13T06:13:41.939Z,18.21
2023-02-13T06:14:43.727Z,18.23
2023-02-13T06:15:46.140Z,18.24
2023-02-13T06:16:47.926Z,18.27
2023-02-13T06:17:49.752Z,18.28
2023-02-13T06:18:51.617Z,18.31
2023-02-13T06:19:53.462Z,18.34
2023-02-13T06:20:55.614Z,18.38
2023-02-13T06:21:57.869Z,18.41
2023-02-13T06:22:59.622Z,18.44
2023-02-13T06:24:01.481Z,18.47
2023-02-13T06:25:03.727Z,18.45
2023-02-13T06:26:07.621Z,18.54
2023-02-13T06:27:09.480Z,18.58
2023-02-13T06:28:11.360Z,18.54
2023-02-13T06:29:13.254Z,18.64
2023-02-13T06:30:16.005Z,18.67
2023-02-13T06:31:17.907Z,18.71
2023-02-13T06:32:19.870Z,18.75
2023-02-13T06:33:21.709Z,18.78
2023-02-13T06:34:23.491Z,18.82
2023-02-13T06:35:25.821Z,18.86
2023-02-13T06:36:27.645Z,18.90
2023-02-13T06:37:29.635Z,18.93
2023-02-13T06:38:32.136Z,18.92
2023-02-13T06:39:33.927Z,18.86
2023-02-13T06:40:35.725Z,19.02
2023-02-13T06:41:37.516Z,19.05
2023-02-13T06:42:39.525Z,19.07
2023-02-13T06:43:41.406Z,19.11
2023-02-13T06:44:43.227Z,19.06
2023-02-13T06:45:47.016Z,19.11
2023-02-13T06:46:48.907Z,19.18
2023-02-13T06:47:51.887Z,19.12
2023-02-13T06:48:54.465Z,19.23
2023-02-13T06:49:56.351Z,19.20
2023-02-13T06:50:58.540Z,19.28
2023-02-13T06:52:00.588Z,19.25
2023-02-13T06:53:02.442Z,19.31
2023-02-13T06:54:04.322Z,19.32
2023-02-13T06:55:06.545Z,19.34
2023-02-13T06:56:11.236Z,19.33
2023-02-13T06:57:13.015Z,19.37
2023-02-13T06:58:14.888Z,19.38
2023-02-13T06:59:16.697Z,19.34
2023-02-13T07:00:19.602Z,19.40
2023-02-13T07:01:21.674Z,19.44
2023-02-13T07:02:23.515Z,19.44
2023-02-13T07:03:25.414Z,19.44
2023-02-13T07:04:28.144Z,19.45
2023-02-13T07:05:30.011Z,19.42
2023-02-13T07:06:33.443Z,19.46
2023-02-13T07:07:36.646Z,19.48
2023-02-13T07:08:38.517Z,19.33
2023-02-13T07:09:41.198Z,19.51
2023-02-13T07:10:43.310Z,19.48
2023-02-13T07:11:45.151Z,19.51
2023-02-13T07:12:53.924Z,19.52
2023-02-13T07:14:09.453Z,19.56
2023-02-13T07:15:11.873Z,19.56
2023-02-13T07:16:14.512Z,19.56
2023-02-13T07:17:16.412Z,19.55
2023-02-13T07:18:18.274Z,19.56
2023-02-13T07:19:20.032Z,19.55
2023-02-13T07:20:21.928Z,19.56
2023-02-13T07:21:23.856Z,19.56
2023-02-13T07:22:25.695Z,19.56
2023-02-13T07:23:27.480Z,19.57
2023-02-13T07:24:29.348Z,19.56
2023-02-13T07:25:31.697Z,19.56
2023-02-13T07:26:33.518Z,19.53
2023-02-13T07:27:35.612Z,19.57
2023-02-13T07:28:37.484Z,19.56
2023-02-13T07:29:39.360Z,19.57
2023-02-13T07:30:41.179Z,19.56
2023-02-13T07:31:43.058Z,19.60
2023-02-13T07:32:44.950Z,19.58
2023-02-13T07:33:49.417Z,19.51
2023-02-13T07:35:01.261Z,19.62
2023-02-13T07:36:05.031Z,19.61
2023-02-13T07:37:06.880Z,19.65
2023-02-13T07:38:11.214Z,19.64
2023-02-13T07:39:13.023Z,19.65
2023-02-13T07:40:14.933Z,19.60
2023-02-13T07:41:16.741Z,19.64
2023-02-13T07:42:18.970Z,19.65
2023-02-13T07:43:21.162Z,19.64
2023-02-13T07:44:22.994Z,19.59
2023-02-13T07:45:24.766Z,19.59
2023-02-13T07:46:26.643Z,19.64
2023-02-13T07:47:28.418Z,19.65
2023-02-13T07:48:31.740Z,19.56
2023-02-13T07:49:33.812Z,19.66
2023-02-13T07:50:35.583Z,19.66
2023-02-13T07:51:37.461Z,19.60
2023-02-13T07:52:39.357Z,19.56
2023-02-13T07:53:41.312Z,19.66
2023-02-13T07:54:47.731Z,19.62
2023-02-13T07:55:49.676Z,19.67
2023-02-13T07:56:51.481Z,19.63
2023-02-13T07:57:53.322Z,19.66
2023-02-13T07:58:55.522Z,19.63
2023-02-13T07:59:57.524Z,19.63
2023-02-13T08:00:59.393Z,19.57
2023-02-13T08:02:01.234Z,19.67
2023-02-13T08:03:03.205Z,19.67
2023-02-13T08:04:05.199Z,19.68
2023-02-13T08:05:08.005Z,19.66
2023-02-13T08:06:10.165Z,19.66
2023-02-13T08:07:12.795Z,19.66
2023-02-13T08:08:14.619Z,19.66
2023-02-13T08:09:41.010Z,19.65
2023-02-13T08:11:01.160Z,19.69
2023-02-13T08:12:03.537Z,19.69
2023-02-13T08:13:06.981Z,19.73
2023-02-13T08:14:09.302Z,19.69
2023-02-13T08:15:15.677Z,19.69
2023-02-13T08:16:17.576Z,19.63
2023-02-13T08:17:19.682Z,19.65
2023-02-13T08:18:21.546Z,19.63
2023-02-13T08:19:24.092Z,19.67
2023-02-13T08:20:26.112Z,19.58
2023-02-13T08:21:28.007Z,19.66
2023-02-13T08:22:29.781Z,19.68
2023-02-13T08:23:31.732Z,19.68
2023-02-13T08:24:33.774Z,19.68
2023-02-13T08:25:36.109Z,19.68
2023-02-13T08:26:38.440Z,19.68
2023-02-13T08:27:40.206Z,19.68
2023-02-13T08:28:42.119Z,19.69
2023-02-13T08:29:44.215Z,19.69
2023-02-13T08:30:46.150Z,19.69
2023-02-13T08:31:48.030Z,19.69
2023-02-13T08:32:54.261Z,19.68
2023-02-13T08:33:57.490Z,19.70
2023-02-13T08:34:59.353Z,19.70
2023-02-13T08:36:03.922Z,19.70
2023-02-13T08:37:05.711Z,19.68
2023-02-13T08:38:07.493Z,19.71
2023-02-13T08:39:10.736Z,19.70
2023-02-13T08:40:12.943Z,19.70
2023-02-13T08:42:22.413Z,19.73
2023-02-13T08:43:24.132Z,19.69
2023-02-13T08:44:26.065Z,19.71
2023-02-13T08:45:28.288Z,19.71
2023-02-13T08:46:30.166Z,19.71
2023-02-13T08:47:32.407Z,19.71
2023-02-13T08:48:34.716Z,19.65
2023-02-13T08:49:36.791Z,19.53
2023-02-13T08:50:38.789Z,19.71
2023-02-13T08:51:40.615Z,19.71
2023-02-13T08:52:42.407Z,19.71
2023-02-13T08:53:44.207Z,19.71
2023-02-13T08:54:46.052Z,19.70
2023-02-13T08:55:55.743Z,19.71
2023-02-13T08:56:58.801Z,19.73
2023-02-13T08:58:04.777Z,19.69
2023-02-13T08:59:06.621Z,19.70
2023-02-13T09:00:09.145Z,19.74
2023-02-13T09:01:11.111Z,19.71
2023-02-13T09:02:13.168Z,19.71
2023-02-13T09:03:15.594Z,19.71
2023-02-13T09:04:18.403Z,19.70
2023-02-13T09:05:20.293Z,19.67
2023-02-13T09:06:23.078Z,19.71
2023-02-13T09:07:25.471Z,19.74
2023-02-13T09:08:27.339Z,19.73
2023-02-13T09:09:29.195Z,19.68
2023-02-13T09:10:32.570Z,19.66
2023-02-13T09:11:34.528Z,19.67
2023-02-13T09:12:36.507Z,19.69
2023-02-13T09:13:38.407Z,19.70
2023-02-13T09:14:40.601Z,19.74
2023-02-13T09:15:43.013Z,19.70
2023-02-13T09:16:44.858Z,19.73
2023-02-13T09:17:46.670Z,19.72
2023-02-13T09:18:49.453Z,19.71
2023-02-13T09:19:51.326Z,19.63
2023-02-13T09:21:08.194Z,19.75
2023-02-13T09:22:09.959Z,19.77
2023-02-13T09:23:11.756Z,19.73
2023-02-13T09:24:13.769Z,19.74
2023-02-13T09:25:15.880Z,19.75
2023-02-13T09:26:20.429Z,19.73
2023-02-13T09:27:22.615Z,19.72
2023-02-13T09:28:24.544Z,19.74
2023-02-13T09:29:30.433Z,19.74
2023-02-13T09:30:32.417Z,19.75
2023-02-13T09:31:34.403Z,19.75
2023-02-13T09:32:37.829Z,19.69
2023-02-13T09:33:39.604Z,19.76
2023-02-13T09:34:41.438Z,19.76
2023-02-13T09:35:43.903Z,19.75
2023-02-13T09:36:45.712Z,19.76
2023-02-13T09:37:47.596Z,19.76
2023-02-13T09:38:53.692Z,19.75
2023-02-13T09:39:55.676Z,19.77
2023-02-13T09:41:03.389Z,19.76
2023-02-13T09:42:30.033Z,19.77
2023-02-13T09:43:34.656Z,19.80
2023-02-13T09:44:43.498Z,19.77
2023-02-13T09:45:47.918Z,19.81
2023-02-13T09:46:49.902Z,19.81
2023-02-13T09:47:52.213Z,19.76
2023-02-13T09:48:56.670Z,19.78
2023-02-13T09:50:23.947Z,19.85
2023-02-13T09:51:27.802Z,19.86
2023-02-13T09:52:34.124Z,19.83
2023-02-13T09:53:37.101Z,19.83
2023-02-13T09:54:39.026Z,19.76
2023-02-13T09:56:10.188Z,19.89
2023-02-13T09:57:25.519Z,19.88
2023-02-13T09:58:41.416Z,19.86
2023-02-13T10:00:13.392Z,19.93
2023-02-13T10:01:30.705Z,19.94
2023-02-13T10:02:53.795Z,19.92
2023-02-13T10:04:05.725Z,19.89
2023-02-13T10:05:16.792Z,19.92
2023-02-13T10:06:32.476Z,19.92
2023-02-13T10:07:49.300Z,19.91
2023-02-13T10:09:15.795Z,19.92
2023-02-13T10:10:30.693Z,19.93
2023-02-13T10:11:55.567Z,19.97
2023-02-13T10:12:57.772Z,19.95
2023-02-13T10:14:16.265Z,19.87
2023-02-13T10:15:31.314Z,19.92
2023-02-13T10:16:42.426Z,19.91
2023-02-13T10:17:55.076Z,19.91
2023-02-13T10:19:12.919Z,19.93
2023-02-13T10:20:32.443Z,19.91
2023-02-13T10:21:39.176Z,19.94
2023-02-13T10:22:46.186Z,19.93
2023-02-13T10:23:54.931Z,19.87
2023-02-13T10:25:14.724Z,19.92
2023-02-13T10:26:24.036Z,19.89
2023-02-13T10:27:32.382Z,19.93
2023-02-13T10:29:30.976Z,19.98
2023-02-13T10:30:39.402Z,20.03
2023-02-13T10:31:44.818Z,19.99
2023-02-13T10:32:49.937Z,19.94
2023-02-13T10:33:58.045Z,19.96
2023-02-13T10:35:02.543Z,19.96
2023-02-13T10:36:10.506Z,19.95
2023-02-13T10:37:21.769Z,19.97
2023-02-13T10:38:24.572Z,19.96
2023-02-13T10:39:29.106Z,19.95
2023-02-13T10:40:36.649Z,19.90
2023-02-13T10:41:43.021Z,19.95
2023-02-13T10:42:48.737Z,19.79
2023-02-13T10:44:12.615Z,19.91
2023-02-13T10:45:42.129Z,20.04
2023-02-13T10:47:18.769Z,20.09
2023-02-13T10:48:46.345Z,20.08
2023-02-13T10:49:55.836Z,20.10
2023-02-13T10:51:10.019Z,20.05
2023-02-13T10:52:50.398Z,20.09
2023-02-13T10:54:10.551Z,20.11
2023-02-13T10:55:49.093Z,20.12
2023-02-13T10:56:51.356Z,20.12
2023-02-13T10:58:19.633Z,20.09
2023-02-13T10:59:24.194Z,20.06
2023-02-13T11:00:46.510Z,19.97
2023-02-13T11:01:58.191Z,20.08
2023-02-13T11:03:00.506Z,20.06
2023-02-13T11:04:12.472Z,20.04
2023-02-13T11:05:23.985Z,20.02
2023-02-13T11:06:25.853Z,20.04
2023-02-13T11:07:29.129Z,20.00
2023-02-13T11:08:34.283Z,19.92
2023-02-13T11:09:41.266Z,19.95
2023-02-13T11:10:43.030Z,20.00
2023-02-13T11:11:45.245Z,20.00
2023-02-13T11:12:48.296Z,19.99
2023-02-13T11:14:08.869Z,20.02
2023-02-13T11:15:27.424Z,20.06
2023-02-13T11:16:39.114Z,20.06
2023-02-13T11:17:44.192Z,19.92
2023-02-13T11:18:50.774Z,20.02
2023-02-13T11:19:58.460Z,20.02
2023-02-13T11:21:21.826Z,20.02
2023-02-13T11:22:39.428Z,20.09
2023-02-13T11:23:49.747Z,20.07
2023-02-13T11:24:56.322Z,20.02
2023-02-13T11:26:04.468Z,20.04
2023-02-13T11:27:12.940Z,20.03
2023-02-13T11:28:21.252Z,20.02
2023-02-13T11:29:29.736Z,20.03
2023-02-13T11:30:35.956Z,20.03
2023-02-13T11:31:38.626Z,19.97
2023-02-13T11:32:40.560Z,20.02
2023-02-13T11:33:42.344Z,20.00
2023-02-13T11:34:45.454Z,20.01
2023-02-13T11:35:48.117Z,19.98
2023-02-13T11:36:55.247Z,19.99
2023-02-13T11:38:15.801Z,20.07
2023-02-13T11:39:20.509Z,20.05
2023-02-13T11:40:32.403Z,20.06
2023-02-13T11:41:42.278Z,20.05
2023-02-13T11:42:46.610Z,20.05
2023-02-13T11:43:53.474Z,19.99
2023-02-13T11:45:03.957Z,20.02
2023-02-13T11:46:13.133Z,20.05
2023-02-13T11:47:16.172Z,20.07
2023-02-13T11:48:22.473Z,20.04
2023-02-13T11:49:27.453Z,20.05
2023-02-13T11:50:32.684Z,20.05
2023-02-13T11:51:38.945Z,20.05
2023-02-13T11:52:41.682Z,20.05
2023-02-13T11:53:43.600Z,20.05
2023-02-13T11:54:45.930Z,20.04
2023-02-13T11:56:21.804Z,20.07
2023-02-13T11:57:25.895Z,20.13
2023-02-13T11:58:29.216Z,20.10
2023-02-13T11:59:39.163Z,20.01
2023-02-13T12:00:42.317Z,20.09
2023-02-13T12:01:49.199Z,20.09
2023-02-13T12:02:51.126Z,20.07
2023-02-13T12:04:04.066Z,20.08
2023-02-13T12:05:26.772Z,20.12
2023-02-13T12:06:28.552Z,20.13
2023-02-13T12:07:32.416Z,20.04
2023-02-13T12:08:37.007Z,20.08
2023-02-13T12:09:44.128Z,20.09
2023-02-13T12:10:46.233Z,20.09
2023-02-13T12:11:51.188Z,20.07
2023-02-13T12:13:11.260Z,20.07
2023-02-13T12:14:19.840Z,20.11
2023-02-13T12:15:33.045Z,20.10
2023-02-13T12:16:38.085Z,20.12
2023-02-13T12:17:45.073Z,20.03
2023-02-13T12:18:51.942Z,19.97
2023-02-13T12:19:55.674Z,20.13
2023-02-13T12:21:41.989Z,20.15
2023-02-13T12:23:07.748Z,20.24
2023-02-13T12:24:21.479Z,20.22
2023-02-13T12:25:23.328Z,20.20
2023-02-13T12:26:59.941Z,20.18
2023-02-13T12:28:01.743Z,20.19
2023-02-13T12:29:41.135Z,20.20
2023-02-13T12:31:09.297Z,20.24
2023-02-13T12:32:26.477Z,20.21
2023-02-13T12:34:06.341Z,20.21
2023-02-13T12:35:26.063Z,20.18
2023-02-13T12:36:36.824Z,20.21
2023-02-13T12:38:03.878Z,20.19
2023-02-13T12:39:24.179Z,20.19
2023-02-13T12:40:51.760Z,20.22
2023-02-13T12:42:14.857Z,20.21
2023-02-13T12:43:38.287Z,20.18
2023-02-13T12:44:40.296Z,20.20
2023-02-13T12:46:10.903Z,20.20
2023-02-13T12:47:17.090Z,20.17
2023-02-13T12:48:34.275Z,20.19
2023-02-13T12:50:11.681Z,20.20
2023-02-13T12:51:44.412Z,20.21
2023-02-13T12:52:58.255Z,20.22
2023-02-13T12:54:25.302Z,20.25
2023-02-13T12:55:53.636Z,20.23
2023-02-13T12:57:13.586Z,19.99
2023-02-13T12:58:37.024Z,20.19
2023-02-13T12:59:44.768Z,20.18
2023-02-13T13:01:06.894Z,20.15
2023-02-13T13:02:24.093Z,20.16
2023-02-13T13:03:36.009Z,20.15
2023-02-13T13:04:52.971Z,20.15
2023-02-13T13:06:13.323Z,20.15
2023-02-13T13:07:44.128Z,20.22
2023-02-13T13:08:48.864Z,20.19
2023-02-13T13:10:18.988Z,20.16
2023-02-13T13:11:59.982Z,20.19
2023-02-13T13:13:23.492Z,20.21
2023-02-13T13:14:40.538Z,20.23
2023-02-13T13:15:55.431Z,20.19
2023-02-13T13:17:00.306Z,20.17
2023-02-13T13:18:26.031Z,20.16
2023-02-13T13:19:33.654Z,20.17
2023-02-13T13:20:44.089Z,20.15
2023-02-13T13:22:03.408Z,20.15
2023-02-13T13:23:32.886Z,20.16
2023-02-13T13:24:57.193Z,20.23
2023-02-13T13:26:01.795Z,20.20
2023-02-13T13:27:04.992Z,20.15
2023-02-13T13:28:19.457Z,20.14
2023-02-13T13:29:44.588Z,20.17
2023-02-13T13:30:47.922Z,20.18
2023-02-13T13:32:01.583Z,20.15
2023-02-13T13:33:15.660Z,20.16
2023-02-13T13:34:23.525Z,20.12
2023-02-13T13:35:25.577Z,20.13
2023-02-13T13:36:53.892Z,20.15
2023-02-13T13:38:07.021Z,20.14
2023-02-13T13:39:44.921Z,20.19
2023-02-13T13:40:52.209Z,20.20
2023-02-13T13:42:06.978Z,20.16
2023-02-13T13:43:22.249Z,20.18
2023-02-13T13:44:29.707Z,20.15
2023-02-13T13:45:57.600Z,20.14
2023-02-13T13:47:07.797Z,20.17
2023-02-13T13:48:31.397Z,20.20
2023-02-13T13:49:55.685Z,20.23
2023-02-13T13:50:58.047Z,20.18
2023-02-13T13:52:23.067Z,20.18
2023-02-13T13:53:25.582Z,20.16
2023-02-13T13:54:34.540Z,20.14
2023-02-13T13:55:51.600Z,20.15
2023-02-13T13:56:53.392Z,20.15
2023-02-13T13:58:00.259Z,20.11
2023-02-13T13:59:02.050Z,20.12
2023-02-13T14:00:12.095Z,19.98
2023-02-13T14:01:15.861Z,20.12
2023-02-13T14:02:17.740Z,20.11
2023-02-13T14:03:34.390Z,20.08
2023-02-13T14:04:43.689Z,20.05
2023-02-13T14:06:13.126Z,20.21
2023-02-13T14:07:22.823Z,20.19
2023-02-13T14:08:45.490Z,20.22
2023-02-13T14:09:47.274Z,20.20
2023-02-13T14:10:49.115Z,20.16
2023-02-13T14:11:51.008Z,20.09
2023-02-13T14:12:55.832Z,20.11
2023-02-13T14:13:58.199Z,20.12
2023-02-13T14:15:00.611Z,20.11
2023-02-13T14:16:03.800Z,20.11
2023-02-13T14:17:13.129Z,20.11
2023-02-13T14:18:14.934Z,20.13
2023-02-13T14:19:29.270Z,20.14
2023-02-13T14:20:52.098Z,20.18
2023-02-13T14:21:55.813Z,20.15
2023-02-13T14:23:08.408Z,20.16
2023-02-13T14:24:12.367Z,20.16
2023-02-13T14:25:26.284Z,20.15
2023-02-13T14:26:37.220Z,20.17
2023-02-13T14:27:39.723Z,20.16
2023-02-13T14:28:58.324Z,20.17
2023-02-13T14:30:01.691Z,20.17
2023-02-13T14:31:17.047Z,20.19
2023-02-13T14:32:37.711Z,20.18
2023-02-13T14:33:39.544Z,20.21
2023-02-13T14:34:42.321Z,20.18
2023-02-13T14:35:44.241Z,20.16
2023-02-13T14:36:49.053Z,20.15
2023-02-13T14:37:54.128Z,20.15
2023-02-13T14:38:59.205Z,20.16